sensor_id;sensor_type;location;lat;lon;timestamp;pressure;altitude;pressure_sealevel;temperature;humidity
24858;BME280;12935;50.782;6.074;2023-06-05T00:01:26;99973.41;;;15.58;61.17
24858;BME280;12935;50.782;6.074;2023-06-05T00:03:51;99967.78;;;15.65;61.22
24858;BME280;12935;50.782;6.074;2023-06-05T00:06:18;99967.75;;;15.68;61.35
24858;BME280;12935;50.782;6.074;2023-06-05T00:08:43;99967.38;;;15.66;61.43
24858;BME280;12935;50.782;6.074;2023-06-05T00:11:09;99971.06;;;15.56;63.13
24858;BME280;12935;50.782;6.074;2023-06-05T00:13:34;99975.53;;;15.43;63.50
24858;BME280;12935;50.782;6.074;2023-06-05T00:15:59;99965.63;;;15.22;64.96
24858;BME280;12935;50.782;6.074;2023-06-05T00:18:28;99969.19;;;15.19;66.30
24858;BME280;12935;50.782;6.074;2023-06-05T00:20:53;99965.88;;;15.31;64.80
24858;BME280;12935;50.782;6.074;2023-06-05T00:23:18;99963.03;;;15.38;65.39
24858;BME280;12935;50.782;6.074;2023-06-05T00:25:43;99958.50;;;15.52;66.18
24858;BME280;12935;50.782;6.074;2023-06-05T00:28:09;99960.50;;;15.51;66.96
24858;BME280;12935;50.782;6.074;2023-06-05T00:30:34;99955.75;;;15.52;66.68
24858;BME280;12935;50.782;6.074;2023-06-05T00:33:00;99957.31;;;15.56;67.19
24858;BME280;12935;50.782;6.074;2023-06-05T00:35:26;99961.28;;;15.52;67.67
24858;BME280;12935;50.782;6.074;2023-06-05T00:37:51;99961.44;;;15.41;69.35
24858;BME280;12935;50.782;6.074;2023-06-05T00:40:16;99958.16;;;15.50;70.00
24858;BME280;12935;50.782;6.074;2023-06-05T00:42:42;99960.25;;;15.42;70.47
24858;BME280;12935;50.782;6.074;2023-06-05T00:45:07;99959.88;;;15.40;71.42
24858;BME280;12935;50.782;6.074;2023-06-05T00:47:33;99962.25;;;15.38;71.60
24858;BME280;12935;50.782;6.074;2023-06-05T00:49:59;99961.50;;;15.34;74.31
24858;BME280;12935;50.782;6.074;2023-06-05T00:52:26;99963.13;;;15.31;74.77
24858;BME280;12935;50.782;6.074;2023-06-05T00:54:52;99952.94;;;15.28;74.85
24858;BME280;12935;50.782;6.074;2023-06-05T00:57:17;99962.09;;;15.22;76.26
24858;BME280;12935;50.782;6.074;2023-06-05T00:59:43;99962.50;;;15.20;76.93
24858;BME280;12935;50.782;6.074;2023-06-05T01:02:10;99960.94;;;15.19;76.60
24858;BME280;12935;50.782;6.074;2023-06-05T01:04:39;99952.72;;;15.16;77.99
24858;BME280;12935;50.782;6.074;2023-06-05T01:07:06;99960.56;;;15.17;77.82
24858;BME280;12935;50.782;6.074;2023-06-05T01:09:32;99955.50;;;15.12;78.80
24858;BME280;12935;50.782;6.074;2023-06-05T01:12:02;99963.47;;;15.06;79.30
24858;BME280;12935;50.782;6.074;2023-06-05T01:14:30;99950.59;;;14.96;80.16
24858;BME280;12935;50.782;6.074;2023-06-05T01:16:59;99952.63;;;14.92;81.37
24858;BME280;12935;50.782;6.074;2023-06-05T01:19:26;99960.03;;;14.95;82.27
24858;BME280;12935;50.782;6.074;2023-06-05T01:21:54;99949.50;;;14.90;82.96
24858;BME280;12935;50.782;6.074;2023-06-05T01:24:21;99951.84;;;14.92;83.06
24858;BME280;12935;50.782;6.074;2023-06-05T01:35:19;99946.94;;;14.76;84.95
24858;BME280;12935;50.782;6.074;2023-06-05T01:37:48;99948.53;;;14.73;85.57
24858;BME280;12935;50.782;6.074;2023-06-05T01:40:17;99949.69;;;14.76;86.08
24858;BME280;12935;50.782;6.074;2023-06-05T01:42:46;99942.69;;;14.68;86.97
24858;BME280;12935;50.782;6.074;2023-06-05T01:45:13;99935.34;;;14.58;86.39
24858;BME280;12935;50.782;6.074;2023-06-05T01:47:40;99938.91;;;14.55;87.18
24858;BME280;12935;50.782;6.074;2023-06-05T01:50:06;99935.72;;;14.60;88.48
24858;BME280;12935;50.782;6.074;2023-06-05T01:52:33;99932.72;;;14.47;88.16
24858;BME280;12935;50.782;6.074;2023-06-05T01:55:00;99937.44;;;14.47;89.06
24858;BME280;12935;50.782;6.074;2023-06-05T01:57:28;99932.38;;;14.42;89.55
24858;BME280;12935;50.782;6.074;2023-06-05T01:59:54;99924.16;;;14.34;90.05
24858;BME280;12935;50.782;6.074;2023-06-05T02:02:20;99920.38;;;14.21;90.71
24858;BME280;12935;50.782;6.074;2023-06-05T02:04:47;99930.94;;;14.26;91.17
24858;BME280;12935;50.782;6.074;2023-06-05T02:07:13;99927.38;;;14.29;91.09
24858;BME280;12935;50.782;6.074;2023-06-05T02:09:42;99922.28;;;14.28;92.17
24858;BME280;12935;50.782;6.074;2023-06-05T02:12:07;99925.72;;;14.35;91.97
24858;BME280;12935;50.782;6.074;2023-06-05T02:14:33;99917.53;;;14.32;91.67
24858;BME280;12935;50.782;6.074;2023-06-05T02:17:02;99922.94;;;14.39;92.16
24858;BME280;12935;50.782;6.074;2023-06-05T02:19:31;99919.50;;;14.31;91.94
24858;BME280;12935;50.782;6.074;2023-06-05T02:21:57;99922.25;;;14.31;91.30
24858;BME280;12935;50.782;6.074;2023-06-05T02:24:22;99919.19;;;14.22;92.54
24858;BME280;12935;50.782;6.074;2023-06-05T02:26:48;99922.78;;;14.16;92.18
24858;BME280;12935;50.782;6.074;2023-06-05T02:29:13;99916.09;;;14.17;93.19
24858;BME280;12935;50.782;6.074;2023-06-05T02:31:38;99925.09;;;14.17;92.87
24858;BME280;12935;50.782;6.074;2023-06-05T02:34:04;99921.28;;;14.08;93.07
24858;BME280;12935;50.782;6.074;2023-06-05T02:36:29;99913.53;;;13.99;93.42
24858;BME280;12935;50.782;6.074;2023-06-05T02:38:58;99908.06;;;13.95;93.58
24858;BME280;12935;50.782;6.074;2023-06-05T02:41:25;99924.16;;;13.93;94.17
24858;BME280;12935;50.782;6.074;2023-06-05T02:43:52;99921.44;;;13.90;94.22
24858;BME280;12935;50.782;6.074;2023-06-05T02:46:17;99917.13;;;13.89;95.50
24858;BME280;12935;50.782;6.074;2023-06-05T02:48:43;99913.59;;;13.88;96.24
24858;BME280;12935;50.782;6.074;2023-06-05T02:51:08;99915.91;;;13.93;96.46
24858;BME280;12935;50.782;6.074;2023-06-05T02:53:36;99922.19;;;13.94;96.69
24858;BME280;12935;50.782;6.074;2023-06-05T02:56:02;99903.06;;;13.83;96.87
24858;BME280;12935;50.782;6.074;2023-06-05T02:58:27;99910.94;;;13.81;97.74
24858;BME280;12935;50.782;6.074;2023-06-05T03:00:54;99912.56;;;13.72;98.05
24858;BME280;12935;50.782;6.074;2023-06-05T03:03:21;99912.56;;;13.72;99.71
24858;BME280;12935;50.782;6.074;2023-06-05T03:05:52;99911.06;;;13.63;99.35
24858;BME280;12935;50.782;6.074;2023-06-05T03:08:17;99910.22;;;13.70;100.00
24858;BME280;12935;50.782;6.074;2023-06-05T03:10:42;99904.72;;;13.70;100.00
24858;BME280;12935;50.782;6.074;2023-06-05T03:13:07;99902.03;;;13.66;100.00
24858;BME280;12935;50.782;6.074;2023-06-05T03:15:33;99897.38;;;13.56;100.00
24858;BME280;12935;50.782;6.074;2023-06-05T03:17:59;99906.34;;;13.67;100.00
24858;BME280;12935;50.782;6.074;2023-06-05T03:20:25;99912.22;;;13.66;100.00
24858;BME280;12935;50.782;6.074;2023-06-05T03:22:50;99897.44;;;13.53;100.00
24858;BME280;12935;50.782;6.074;2023-06-05T03:25:16;99899.75;;;13.54;100.00
24858;BME280;12935;50.782;6.074;2023-06-05T03:27:42;99908.03;;;13.47;100.00
24858;BME280;12935;50.782;6.074;2023-06-05T03:30:08;99896.78;;;13.34;100.00
24858;BME280;12935;50.782;6.074;2023-06-05T03:32:34;99901.88;;;13.29;100.00
24858;BME280;12935;50.782;6.074;2023-06-05T03:34:59;99906.97;;;13.30;100.00
24858;BME280;12935;50.782;6.074;2023-06-05T03:37:25;99909.66;;;13.41;100.00
24858;BME280;12935;50.782;6.074;2023-06-05T03:39:50;99907.69;;;13.42;100.00
24858;BME280;12935;50.782;6.074;2023-06-05T03:42:15;99904.53;;;13.43;100.00
24858;BME280;12935;50.782;6.074;2023-06-05T03:44:41;99905.38;;;13.37;100.00
24858;BME280;12935;50.782;6.074;2023-06-05T03:47:06;99902.97;;;13.42;100.00
24858;BME280;12935;50.782;6.074;2023-06-05T03:49:33;99900.25;;;13.39;100.00
24858;BME280;12935;50.782;6.074;2023-06-05T03:51:58;99901.50;;;13.27;100.00
24858;BME280;12935;50.782;6.074;2023-06-05T03:54:29;99896.84;;;13.20;100.00
24858;BME280;12935;50.782;6.074;2023-06-05T03:56:58;99904.25;;;13.23;100.00
24858;BME280;12935;50.782;6.074;2023-06-05T03:59:25;99897.72;;;12.99;100.00
24858;BME280;12935;50.782;6.074;2023-06-05T04:01:53;99909.88;;;12.95;100.00
24858;BME280;12935;50.782;6.074;2023-06-05T04:04:18;99906.03;;;12.78;100.00
24858;BME280;12935;50.782;6.074;2023-06-05T04:06:43;99907.72;;;12.58;100.00
24858;BME280;12935;50.782;6.074;2023-06-05T04:09:09;99905.75;;;12.58;100.00
24858;BME280;12935;50.782;6.074;2023-06-05T04:11:41;99912.75;;;12.67;100.00
24858;BME280;12935;50.782;6.074;2023-06-05T04:14:07;99919.78;;;12.71;100.00
24858;BME280;12935;50.782;6.074;2023-06-05T04:16:34;99918.97;;;12.81;100.00
24858;BME280;12935;50.782;6.074;2023-06-05T04:19:00;99911.53;;;12.82;100.00
24858;BME280;12935;50.782;6.074;2023-06-05T04:21:25;99913.47;;;12.88;100.00
24858;BME280;12935;50.782;6.074;2023-06-05T04:23:50;99909.50;;;12.93;100.00
24858;BME280;12935;50.782;6.074;2023-06-05T04:26:16;99917.72;;;12.96;100.00
24858;BME280;12935;50.782;6.074;2023-06-05T04:28:42;99909.47;;;13.00;100.00
24858;BME280;12935;50.782;6.074;2023-06-05T04:31:09;99914.94;;;13.04;100.00
24858;BME280;12935;50.782;6.074;2023-06-05T04:33:34;99909.81;;;13.09;100.00
24858;BME280;12935;50.782;6.074;2023-06-05T04:36:00;99913.38;;;13.03;100.00
24858;BME280;12935;50.782;6.074;2023-06-05T04:38:25;99908.63;;;13.14;100.00
24858;BME280;12935;50.782;6.074;2023-06-05T04:40:50;99908.25;;;13.19;100.00
24858;BME280;12935;50.782;6.074;2023-06-05T04:43:16;99910.59;;;13.20;100.00
24858;BME280;12935;50.782;6.074;2023-06-05T04:45:42;99913.63;;;13.33;100.00
24858;BME280;12935;50.782;6.074;2023-06-05T04:48:10;99921.00;;;13.47;100.00
24858;BME280;12935;50.782;6.074;2023-06-05T04:50:35;99913.97;;;13.39;100.00
24858;BME280;12935;50.782;6.074;2023-06-05T04:53:02;99921.72;;;13.54;100.00
24858;BME280;12935;50.782;6.074;2023-06-05T04:55:28;99922.06;;;13.60;100.00
24858;BME280;12935;50.782;6.074;2023-06-05T04:57:53;99906.00;;;13.58;100.00
24858;BME280;12935;50.782;6.074;2023-06-05T05:00:19;99923.53;;;13.72;100.00
24858;BME280;12935;50.782;6.074;2023-06-05T05:02:45;99909.38;;;13.80;100.00
24858;BME280;12935;50.782;6.074;2023-06-05T05:05:10;99904.69;;;13.77;100.00
24858;BME280;12935;50.782;6.074;2023-06-05T05:07:41;99919.16;;;13.81;100.00
24858;BME280;12935;50.782;6.074;2023-06-05T05:10:08;99917.53;;;13.87;100.00
24858;BME280;12935;50.782;6.074;2023-06-05T05:12:34;99911.63;;;13.92;100.00
24858;BME280;12935;50.782;6.074;2023-06-05T05:14:59;99917.41;;;14.01;100.00
24858;BME280;12935;50.782;6.074;2023-06-05T05:17:25;99924.44;;;14.06;100.00
24858;BME280;12935;50.782;6.074;2023-06-05T05:19:51;99921.25;;;14.11;100.00
24858;BME280;12935;50.782;6.074;2023-06-05T05:22:16;99925.47;;;14.19;100.00
24858;BME280;12935;50.782;6.074;2023-06-05T05:24:42;99925.47;;;14.23;100.00
24858;BME280;12935;50.782;6.074;2023-06-05T05:27:07;99924.66;;;14.26;100.00
24858;BME280;12935;50.782;6.074;2023-06-05T05:29:33;99924.28;;;14.24;100.00
24858;BME280;12935;50.782;6.074;2023-06-05T05:31:58;99917.97;;;14.27;100.00
24858;BME280;12935;50.782;6.074;2023-06-05T05:34:23;99923.97;;;14.15;100.00
24858;BME280;12935;50.782;6.074;2023-06-05T05:36:49;99923.50;;;14.23;100.00
24858;BME280;12935;50.782;6.074;2023-06-05T05:39:14;99918.84;;;14.17;100.00
24858;BME280;12935;50.782;6.074;2023-06-05T05:41:40;99917.69;;;14.14;100.00
24858;BME280;12935;50.782;6.074;2023-06-05T05:44:06;99918.50;;;14.11;100.00
24858;BME280;12935;50.782;6.074;2023-06-05T05:46:32;99919.16;;;14.26;100.00
24858;BME280;12935;50.782;6.074;2023-06-05T05:48:57;99910.88;;;14.29;100.00
24858;BME280;12935;50.782;6.074;2023-06-05T05:51:22;99924.09;;;14.45;100.00
24858;BME280;12935;50.782;6.074;2023-06-05T05:53:48;99922.84;;;14.50;100.00
24858;BME280;12935;50.782;6.074;2023-06-05T05:56:13;99921.00;;;14.36;100.00
24858;BME280;12935;50.782;6.074;2023-06-05T05:58:39;99924.53;;;14.36;100.00
24858;BME280;12935;50.782;6.074;2023-06-05T06:01:04;99926.38;;;14.50;100.00
24858;BME280;12935;50.782;6.074;2023-06-05T06:03:29;99926.22;;;14.64;100.00
24858;BME280;12935;50.782;6.074;2023-06-05T06:05:55;99927.78;;;14.65;100.00
24858;BME280;12935;50.782;6.074;2023-06-05T06:08:24;99929.53;;;14.49;100.00
24858;BME280;12935;50.782;6.074;2023-06-05T06:10:50;99924.31;;;14.61;100.00
24858;BME280;12935;50.782;6.074;2023-06-05T06:13:15;99933.16;;;14.76;100.00
24858;BME280;12935;50.782;6.074;2023-06-05T06:15:40;99933.47;;;14.82;100.00
24858;BME280;12935;50.782;6.074;2023-06-05T06:18:06;99926.75;;;14.86;100.00
24858;BME280;12935;50.782;6.074;2023-06-05T06:20:32;99928.94;;;14.98;100.00
24858;BME280;12935;50.782;6.074;2023-06-05T06:22:58;99941.75;;;15.12;100.00
24858;BME280;12935;50.782;6.074;2023-06-05T06:25:24;99936.56;;;15.18;100.00
24858;BME280;12935;50.782;6.074;2023-06-05T06:27:57;99942.44;;;15.20;100.00
24858;BME280;12935;50.782;6.074;2023-06-05T06:30:24;99942.03;;;15.21;100.00
24858;BME280;12935;50.782;6.074;2023-06-05T06:32:49;99941.13;;;15.28;100.00
24858;BME280;12935;50.782;6.074;2023-06-05T06:35:15;99942.81;;;15.22;100.00
24858;BME280;12935;50.782;6.074;2023-06-05T06:37:41;99940.72;;;15.29;100.00
24858;BME280;12935;50.782;6.074;2023-06-05T06:40:07;99943.72;;;15.42;100.00
24858;BME280;12935;50.782;6.074;2023-06-05T06:42:37;99945.09;;;15.54;100.00
24858;BME280;12935;50.782;6.074;2023-06-05T06:45:02;99940.47;;;15.47;100.00
24858;BME280;12935;50.782;6.074;2023-06-05T06:47:29;99952.56;;;15.57;100.00
24858;BME280;12935;50.782;6.074;2023-06-05T06:49:55;99950.53;;;15.30;100.00
24858;BME280;12935;50.782;6.074;2023-06-05T06:52:22;99952.63;;;15.23;100.00
24858;BME280;12935;50.782;6.074;2023-06-05T06:54:47;99953.09;;;15.44;100.00
24858;BME280;12935;50.782;6.074;2023-06-05T06:57:12;99954.75;;;15.69;100.00
24858;BME280;12935;50.782;6.074;2023-06-05T06:59:38;99954.41;;;15.90;100.00
24858;BME280;12935;50.782;6.074;2023-06-05T07:02:10;99953.94;;;15.95;100.00
24858;BME280;12935;50.782;6.074;2023-06-05T07:04:36;99950.88;;;16.13;100.00
24858;BME280;12935;50.782;6.074;2023-06-05T07:07:02;99963.78;;;16.20;100.00
24858;BME280;12935;50.782;6.074;2023-06-05T07:09:28;99958.53;;;16.25;100.00
24858;BME280;12935;50.782;6.074;2023-06-05T07:11:56;99959.06;;;16.40;100.00
24858;BME280;12935;50.782;6.074;2023-06-05T07:14:22;99961.56;;;16.54;100.00
24858;BME280;12935;50.782;6.074;2023-06-05T07:16:47;99965.38;;;16.64;100.00
24858;BME280;12935;50.782;6.074;2023-06-05T07:19:15;99959.22;;;16.76;100.00
24858;BME280;12935;50.782;6.074;2023-06-05T07:21:41;99951.56;;;16.83;100.00
24858;BME280;12935;50.782;6.074;2023-06-05T07:24:06;99953.69;;;16.96;100.00
24858;BME280;12935;50.782;6.074;2023-06-05T07:26:32;99952.91;;;16.95;100.00
24858;BME280;12935;50.782;6.074;2023-06-05T07:28:57;99961.31;;;17.08;100.00
24858;BME280;12935;50.782;6.074;2023-06-05T07:31:22;99955.50;;;17.02;100.00
24858;BME280;12935;50.782;6.074;2023-06-05T07:33:47;99957.97;;;17.16;100.00
24858;BME280;12935;50.782;6.074;2023-06-05T07:36:13;99957.44;;;17.05;99.49
24858;BME280;12935;50.782;6.074;2023-06-05T07:38:39;99965.25;;;17.27;98.45
24858;BME280;12935;50.782;6.074;2023-06-05T07:41:08;99958.16;;;17.45;97.57
24858;BME280;12935;50.782;6.074;2023-06-05T07:43:33;99956.69;;;17.57;94.64
24858;BME280;12935;50.782;6.074;2023-06-05T07:45:59;99953.63;;;17.71;94.00
24858;BME280;12935;50.782;6.074;2023-06-05T07:48:24;99950.94;;;17.84;93.88
24858;BME280;12935;50.782;6.074;2023-06-05T07:50:49;99950.47;;;17.53;95.67
24858;BME280;12935;50.782;6.074;2023-06-05T07:53:15;99954.78;;;17.54;95.96
24858;BME280;12935;50.782;6.074;2023-06-05T07:55:40;99948.63;;;17.82;94.62
24858;BME280;12935;50.782;6.074;2023-06-05T07:58:05;99956.81;;;17.86;94.82
24858;BME280;12935;50.782;6.074;2023-06-05T08:00:31;99950.59;;;17.98;93.74
24858;BME280;12935;50.782;6.074;2023-06-05T08:02:56;99955.59;;;18.19;92.43
24858;BME280;12935;50.782;6.074;2023-06-05T08:05:22;99948.28;;;18.42;90.87
24858;BME280;12935;50.782;6.074;2023-06-05T08:07:47;99949.38;;;18.15;88.09
24858;BME280;12935;50.782;6.074;2023-06-05T08:10:13;99951.28;;;18.18;87.04
24858;BME280;12935;50.782;6.074;2023-06-05T08:12:39;99956.03;;;18.18;85.20
24858;BME280;12935;50.782;6.074;2023-06-05T08:15:04;99949.75;;;18.46;85.80
24858;BME280;12935;50.782;6.074;2023-06-05T08:17:31;99950.84;;;18.65;83.15
24858;BME280;12935;50.782;6.074;2023-06-05T08:19:56;99949.72;;;18.91;82.23
24858;BME280;12935;50.782;6.074;2023-06-05T08:22:21;99940.44;;;19.11;81.86
24858;BME280;12935;50.782;6.074;2023-06-05T08:24:48;99926.75;;;19.20;80.10
24858;BME280;12935;50.782;6.074;2023-06-05T08:27:16;99928.41;;;19.30;80.42
24858;BME280;12935;50.782;6.074;2023-06-05T08:29:41;99931.84;;;19.34;78.75
24858;BME280;12935;50.782;6.074;2023-06-05T08:32:06;99926.75;;;19.45;78.06
24858;BME280;12935;50.782;6.074;2023-06-05T08:34:34;99933.59;;;19.41;74.57
24858;BME280;12935;50.782;6.074;2023-06-05T08:37:00;99935.78;;;19.08;70.86
24858;BME280;12935;50.782;6.074;2023-06-05T08:39:25;99934.19;;;19.36;71.04
24858;BME280;12935;50.782;6.074;2023-06-05T08:41:54;99942.41;;;19.65;70.20
24858;BME280;12935;50.782;6.074;2023-06-05T08:44:26;99939.16;;;19.91;68.98
24858;BME280;12935;50.782;6.074;2023-06-05T08:46:52;99940.59;;;19.96;67.78
24858;BME280;12935;50.782;6.074;2023-06-05T08:49:21;99931.91;;;20.07;66.96
24858;BME280;12935;50.782;6.074;2023-06-05T08:51:50;99933.19;;;20.27;63.22
24858;BME280;12935;50.782;6.074;2023-06-05T08:54:19;99930.72;;;19.95;64.48
24858;BME280;12935;50.782;6.074;2023-06-05T08:56:46;99929.53;;;20.18;66.33
24858;BME280;12935;50.782;6.074;2023-06-05T08:59:12;99934.59;;;20.32;66.12
24858;BME280;12935;50.782;6.074;2023-06-05T09:01:40;99928.25;;;20.31;65.57
24858;BME280;12935;50.782;6.074;2023-06-05T09:04:05;99934.72;;;20.63;65.17
24858;BME280;12935;50.782;6.074;2023-06-05T09:06:31;99931.91;;;20.76;65.10
24858;BME280;12935;50.782;6.074;2023-06-05T09:08:59;99927.63;;;20.62;62.61
24858;BME280;12935;50.782;6.074;2023-06-05T09:11:28;99928.66;;;20.77;61.95
24858;BME280;12935;50.782;6.074;2023-06-05T09:13:55;99934.34;;;20.52;61.59
24858;BME280;12935;50.782;6.074;2023-06-05T09:16:23;99935.88;;;20.53;60.28
24858;BME280;12935;50.782;6.074;2023-06-05T09:18:57;99924.31;;;20.98;60.55
24858;BME280;12935;50.782;6.074;2023-06-05T09:21:24;99923.63;;;21.38;59.39
24858;BME280;12935;50.782;6.074;2023-06-05T09:26:53;99912.03;;;21.08;55.61
24858;BME280;12935;50.782;6.074;2023-06-05T09:29:24;99920.06;;;21.37;55.60
24858;BME280;12935;50.782;6.074;2023-06-05T09:31:51;99911.84;;;21.74;55.67
24858;BME280;12935;50.782;6.074;2023-06-05T09:34:21;99912.06;;;22.07;55.06
24858;BME280;12935;50.782;6.074;2023-06-05T09:36:47;99915.75;;;21.94;51.35
24858;BME280;12935;50.782;6.074;2023-06-05T09:39:16;99909.47;;;22.12;52.08
24858;BME280;12935;50.782;6.074;2023-06-05T09:41:42;99916.44;;;22.35;50.48
24858;BME280;12935;50.782;6.074;2023-06-05T09:44:09;99911.97;;;22.19;49.67
24858;BME280;12935;50.782;6.074;2023-06-05T09:46:55;99911.47;;;22.02;50.84
24858;BME280;12935;50.782;6.074;2023-06-05T09:49:28;99906.06;;;22.08;52.05
24858;BME280;12935;50.782;6.074;2023-06-05T09:51:55;99903.69;;;21.97;49.75
24858;BME280;12935;50.782;6.074;2023-06-05T09:54:21;99916.34;;;21.80;48.82
24858;BME280;12935;50.782;6.074;2023-06-05T09:56:49;99899.56;;;22.11;49.87
24858;BME280;12935;50.782;6.074;2023-06-05T09:59:18;99913.47;;;22.20;50.42
24858;BME280;12935;50.782;6.074;2023-06-05T10:01:45;99908.84;;;22.26;48.95
24858;BME280;12935;50.782;6.074;2023-06-05T10:04:13;99908.69;;;22.66;49.49
24858;BME280;12935;50.782;6.074;2023-06-05T10:06:40;99904.09;;;23.15;49.48
24858;BME280;12935;50.782;6.074;2023-06-05T10:09:07;99908.47;;;23.58;47.65
24858;BME280;12935;50.782;6.074;2023-06-05T10:11:32;99907.06;;;23.86;47.91
24858;BME280;12935;50.782;6.074;2023-06-05T10:13:58;99909.13;;;24.00;45.62
24858;BME280;12935;50.782;6.074;2023-06-05T10:16:25;99909.41;;;23.55;43.24
24858;BME280;12935;50.782;6.074;2023-06-05T10:18:51;99907.69;;;23.48;42.88
24858;BME280;12935;50.782;6.074;2023-06-05T10:21:17;99900.81;;;24.15;44.35
24858;BME280;12935;50.782;6.074;2023-06-05T10:23:45;99901.91;;;24.71;43.71
24858;BME280;12935;50.782;6.074;2023-06-05T10:26:33;99903.25;;;24.75;42.59
24858;BME280;12935;50.782;6.074;2023-06-05T10:32:07;99892.44;;;24.39;40.52
24858;BME280;12935;50.782;6.074;2023-06-05T10:37:31;99902.88;;;24.29;42.57
24858;BME280;12935;50.782;6.074;2023-06-05T10:40:00;99889.06;;;24.50;41.90
24858;BME280;12935;50.782;6.074;2023-06-05T10:42:26;99903.53;;;25.22;40.40
24858;BME280;12935;50.782;6.074;2023-06-05T10:44:52;99898.91;;;25.68;39.94
24858;BME280;12935;50.782;6.074;2023-06-05T10:52:40;99887.88;;;26.40;35.87
24858;BME280;12935;50.782;6.074;2023-06-05T10:55:05;99876.16;;;25.96;36.22
24858;BME280;12935;50.782;6.074;2023-06-05T10:58:07;99893.13;;;26.53;37.89
24858;BME280;12935;50.782;6.074;2023-06-05T11:00:33;99891.53;;;26.72;37.48
24858;BME280;12935;50.782;6.074;2023-06-05T11:03:00;99883.88;;;26.73;37.46
24858;BME280;12935;50.782;6.074;2023-06-05T11:05:26;99880.13;;;27.07;37.20
24858;BME280;12935;50.782;6.074;2023-06-05T11:08:10;99873.19;;;27.40;35.62
24858;BME280;12935;50.782;6.074;2023-06-05T11:11:05;99876.94;;;26.94;35.45
24858;BME280;12935;50.782;6.074;2023-06-05T11:16:31;99872.66;;;26.99;34.07
24858;BME280;12935;50.782;6.074;2023-06-05T11:22:08;99867.38;;;26.08;34.15
24858;BME280;12935;50.782;6.074;2023-06-05T11:24:35;99860.88;;;26.95;34.23
24858;BME280;12935;50.782;6.074;2023-06-05T11:27:02;99875.28;;;27.08;32.66
24858;BME280;12935;50.782;6.074;2023-06-05T11:29:29;99876.91;;;27.57;33.13
24858;BME280;12935;50.782;6.074;2023-06-05T11:31:55;99873.09;;;26.92;31.20
24858;BME280;12935;50.782;6.074;2023-06-05T11:34:20;99864.31;;;27.10;33.38
24858;BME280;12935;50.782;6.074;2023-06-05T11:36:46;99857.06;;;26.66;32.84
24858;BME280;12935;50.782;6.074;2023-06-05T11:39:13;99856.66;;;27.05;32.54
24858;BME280;12935;50.782;6.074;2023-06-05T11:41:49;99856.63;;;26.73;32.21
24858;BME280;12935;50.782;6.074;2023-06-05T11:44:16;99854.31;;;27.77;34.50
24858;BME280;12935;50.782;6.074;2023-06-05T11:46:54;99851.28;;;27.38;31.96
24858;BME280;12935;50.782;6.074;2023-06-05T11:49:29;99849.50;;;27.04;32.39
24858;BME280;12935;50.782;6.074;2023-06-05T11:51:55;99840.72;;;27.65;32.99
24858;BME280;12935;50.782;6.074;2023-06-05T11:54:29;99858.91;;;28.45;31.36
24858;BME280;12935;50.782;6.074;2023-06-05T11:57:02;99858.97;;;29.07;31.00
24858;BME280;12935;50.782;6.074;2023-06-05T11:59:37;99849.66;;;28.22;32.37
24858;BME280;12935;50.782;6.074;2023-06-05T12:02:03;99849.09;;;28.18;31.86
24858;BME280;12935;50.782;6.074;2023-06-05T12:04:30;99853.25;;;28.28;32.14
24858;BME280;12935;50.782;6.074;2023-06-05T12:06:56;99851.50;;;28.48;31.79
24858;BME280;12935;50.782;6.074;2023-06-05T12:09:22;99847.97;;;29.20;30.63
24858;BME280;12935;50.782;6.074;2023-06-05T12:11:48;99852.19;;;29.77;30.68
24858;BME280;12935;50.782;6.074;2023-06-05T12:14:28;99850.03;;;28.86;29.84
24858;BME280;12935;50.782;6.074;2023-06-05T12:16:53;99848.19;;;27.79;30.41
24858;BME280;12935;50.782;6.074;2023-06-05T12:19:19;99840.16;;;27.18;30.93
24858;BME280;12935;50.782;6.074;2023-06-05T12:21:46;99841.06;;;27.41;32.41
24858;BME280;12935;50.782;6.074;2023-06-05T12:24:12;99836.28;;;28.01;32.01
24858;BME280;12935;50.782;6.074;2023-06-05T12:26:48;99838.53;;;27.85;31.13
24858;BME280;12935;50.782;6.074;2023-06-05T12:29:16;99831.81;;;27.29;31.43
24858;BME280;12935;50.782;6.074;2023-06-05T12:31:42;99833.09;;;28.52;31.11
24858;BME280;12935;50.782;6.074;2023-06-05T12:34:07;99830.81;;;28.79;31.20
24858;BME280;12935;50.782;6.074;2023-06-05T12:36:39;99826.47;;;29.00;31.57
24858;BME280;12935;50.782;6.074;2023-06-05T12:39:07;99810.13;;;28.82;30.03
24858;BME280;12935;50.782;6.074;2023-06-05T12:41:33;99820.59;;;28.98;31.97
24858;BME280;12935;50.782;6.074;2023-06-05T12:44:04;99822.88;;;28.72;30.49
24858;BME280;12935;50.782;6.074;2023-06-05T12:46:30;99821.72;;;28.08;30.54
24858;BME280;12935;50.782;6.074;2023-06-05T12:48:57;99821.22;;;27.50;31.70
24858;BME280;12935;50.782;6.074;2023-06-05T12:51:23;99833.38;;;27.78;31.63
24858;BME280;12935;50.782;6.074;2023-06-05T12:53:49;99814.97;;;29.09;29.50
24858;BME280;12935;50.782;6.074;2023-06-05T12:56:14;99824.69;;;30.05;29.15
24858;BME280;12935;50.782;6.074;2023-06-05T12:58:40;99814.19;;;28.47;29.94
24858;BME280;12935;50.782;6.074;2023-06-05T13:01:05;99812.16;;;28.87;31.42
24858;BME280;12935;50.782;6.074;2023-06-05T13:03:30;99806.53;;;30.00;29.79
24858;BME280;12935;50.782;6.074;2023-06-05T13:05:56;99795.97;;;30.07;28.25
24858;BME280;12935;50.782;6.074;2023-06-05T13:08:21;99802.66;;;29.40;29.27
24858;BME280;12935;50.782;6.074;2023-06-05T13:10:46;99799.88;;;28.56;30.22
24858;BME280;12935;50.782;6.074;2023-06-05T13:13:12;99804.75;;;29.06;31.44
24858;BME280;12935;50.782;6.074;2023-06-05T13:15:37;99795.03;;;30.34;30.49
24858;BME280;12935;50.782;6.074;2023-06-05T13:18:02;99798.44;;;30.62;28.00
24858;BME280;12935;50.782;6.074;2023-06-05T13:20:28;99792.28;;;32.42;28.06
24858;BME280;12935;50.782;6.074;2023-06-05T13:22:53;99791.63;;;33.79;25.25
24858;BME280;12935;50.782;6.074;2023-06-05T13:25:18;99788.50;;;35.93;24.45